Time;durP1;ratioP1;P1;durP2;ratioP2;P2;SDS_P1;SDS_P2;PMS_P1;PMS_P2;Temp;Humidity;BMP_temperature;BMP_pressure;BME280_temperature;BME280_humidity;BME280_pressure;Samples;Min_cycle;Max_cycle;Signal;HPM_P1;HPM_P2
2022/01/20 00:01:06;;;;;;;30.63;12.87;;;5.40;99.90;;;;;;4950817;28;20472;-70
2022/01/20 00:03:34;;;;;;;26.17;11.57;;;5.40;99.90;;;;;;4936988;28;20429;-70
2022/01/20 00:27:37;;;;;;;13.63;7.43;;;5.60;99.90;;;;;;5095111;28;20421;-66
2022/01/20 00:33:13;;;;;;;24.30;7.80;;;5.40;99.90;;;;;;5095146;28;20391;-68
2022/01/20 00:38:15;;;;;;;30.77;8.10;;;5.30;99.90;;;;;;5073459;28;21084;-68
2022/01/20 00:40:41;;;;;;;16.90;6.20;;;5.30;99.90;;;;;;5101130;28;20426;-68
2022/01/20 00:43:06;;;;;;;20.57;6.10;;;5.20;99.90;;;;;;5094172;28;20422;-68
2022/01/20 00:45:32;;;;;;;27.20;6.90;;;5.20;99.90;;;;;;5090493;28;20646;-67
2022/01/20 00:47:57;;;;;;;17.70;6.03;;;5.00;99.90;;;;;;5090075;28;20552;-68
2022/01/20 00:50:24;;;;;;;20.07;7.10;;;5.00;99.90;;;;;;5106282;28;20191;-68
2022/01/20 00:52:50;;;;;;;19.90;6.93;;;5.00;99.90;;;;;;5114683;28;20834;-68
2022/01/20 00:55:16;;;;;;;29.03;7.93;;;5.00;99.90;;;;;;5114643;28;20517;-68
2022/01/20 00:57:42;;;;;;;15.67;8.30;;;5.00;99.90;;;;;;5114807;28;20464;-68
2022/01/20 01:00:10;;;;;;;27.23;8.10;;;5.00;99.90;;;;;;5113298;28;20599;-69
2022/01/20 01:02:35;;;;;;;18.90;7.97;;;5.00;99.90;;;;;;5114484;28;20601;-67
2022/01/20 01:05:03;;;;;;;19.67;7.50;;;5.10;99.90;;;;;;5114756;28;20405;-68
2022/01/20 01:09:54;;;;;;;18.50;8.40;;;5.10;99.90;;;;;;5115105;28;20838;-68
2022/01/20 01:12:31;;;;;;;26.07;8.63;;;5.20;99.90;;;;;;5113095;28;20186;-68
2022/01/20 01:14:58;;;;;;;23.93;8.27;;;5.20;99.90;;;;;;5096294;28;20246;-69
2022/01/20 01:20:08;;;;;;;31.50;9.20;;;5.30;99.90;;;;;;5114753;28;20402;-68
2022/01/20 01:22:34;;;;;;;25.87;8.27;;;5.10;99.90;;;;;;5094211;28;20554;-69
2022/01/20 01:25:01;;;;;;;25.53;8.40;;;5.10;99.90;;;;;;5114864;28;20410;-68
2022/01/20 01:27:29;;;;;;;26.80;9.53;;;5.10;99.90;;;;;;5114273;28;20186;-69
2022/01/20 01:32:26;;;;;;;29.43;9.23;;;5.10;99.90;;;;;;5112952;28;20457;-68
2022/01/20 01:34:53;;;;;;;20.73;8.70;;;5.10;99.90;;;;;;5114575;28;20188;-68
2022/01/20 01:40:08;;;;;;;25.40;10.43;;;5.20;99.90;;;;;;5062070;28;20434;-69
2022/01/20 01:42:41;;;;;;;24.07;10.60;;;5.20;99.90;;;;;;5112456;28;20469;-68
2022/01/20 01:45:30;;;;;;;32.07;11.80;;;5.30;99.90;;;;;;5113932;28;20500;-69
2022/01/20 01:47:56;;;;;;;25.90;10.13;;;5.30;99.90;;;;;;5114095;28;20437;-69
2022/01/20 01:50:23;;;;;;;19.20;8.50;;;5.40;99.90;;;;;;5113829;28;20449;-68
2022/01/20 01:52:48;;;;;;;21.17;8.60;;;5.30;99.90;;;;;;5113540;28;20435;-69
2022/01/20 01:55:14;;;;;;;22.70;9.23;;;5.40;99.90;;;;;;5112275;28;20938;-68
2022/01/20 01:57:40;;;;;;;21.50;9.63;;;5.50;99.90;;;;;;5113461;28;20200;-67
2022/01/20 02:00:09;;;;;;;19.73;8.43;;;5.50;99.90;;;;;;5113872;28;20416;-69
2022/01/20 02:02:36;;;;;;;17.53;7.60;;;5.50;99.90;;;;;;5113629;28;20667;-68
2022/01/20 02:05:04;;;;;;;20.13;7.70;;;5.40;99.90;;;;;;5093567;28;20430;-69
2022/01/20 02:18:50;;;;;;;17.40;6.20;;;5.00;99.90;;;;;;5093133;28;21044;-68
2022/01/20 02:21:13;;;;;;;24.17;7.57;;;4.90;99.90;;;;;;5094488;28;20421;-68
2022/01/20 02:23:39;;;;;;;19.33;6.83;;;5.00;99.90;;;;;;5095483;28;20442;-68
2022/01/20 02:26:05;;;;;;;23.63;6.93;;;4.90;99.90;;;;;;5095179;28;20413;-69
2022/01/20 02:28:30;;;;;;;19.20;5.87;;;4.90;99.90;;;;;;5093250;28;20189;-68
2022/01/20 02:30:57;;;;;;;17.00;6.07;;;5.00;99.90;;;;;;5093054;28;20190;-68
2022/01/20 02:33:25;;;;;;;16.03;5.83;;;4.90;99.90;;;;;;5092685;28;20160;-68
2022/01/20 02:36:09;;;;;;;19.53;6.47;;;4.80;99.90;;;;;;5093262;28;20439;-68
2022/01/20 02:38:42;;;;;;;11.27;5.53;;;4.90;99.90;;;;;;5093519;28;20466;-68
2022/01/20 02:46:53;;;;;;;23.30;6.50;;;4.90;99.90;;;;;;5020764;28;20474;-68
2022/01/20 02:49:19;;;;;;;18.27;5.83;;;4.90;99.90;;;;;;5077258;28;20442;-69
2022/01/20 02:51:51;;;;;;;30.57;6.47;;;5.00;99.90;;;;;;5092564;28;20184;-68
2022/01/20 02:54:17;;;;;;;10.27;4.50;;;5.00;99.90;;;;;;5092544;28;20522;-69
2022/01/20 02:56:44;;;;;;;14.97;5.50;;;5.10;99.90;;;;;;5092357;28;20449;-69
2022/01/20 02:59:09;;;;;;;16.70;5.00;;;5.10;99.90;;;;;;5093218;28;20430;-69
2022/01/20 03:01:35;;;;;;;20.10;5.27;;;5.10;99.90;;;;;;5095949;28;20933;-68
2022/01/20 03:04:02;;;;;;;18.80;6.23;;;5.10;99.90;;;;;;5092658;28;20636;-68
2022/01/20 03:06:27;;;;;;;13.80;4.97;;;5.00;99.90;;;;;;5092134;28;20228;-69
2022/01/20 03:08:53;;;;;;;9.93;3.83;;;4.90;99.90;;;;;;5092423;28;20540;-69
2022/01/20 03:11:19;;;;;;;13.70;3.70;;;4.90;99.90;;;;;;5093404;28;20180;-69
2022/01/20 03:13:44;;;;;;;15.60;5.07;;;5.00;99.90;;;;;;5092387;28;20199;-69
2022/01/20 03:16:10;;;;;;;16.50;4.80;;;5.00;99.90;;;;;;5092009;28;20173;-69
2022/01/20 03:18:35;;;;;;;9.90;3.93;;;5.10;99.90;;;;;;5092241;28;20310;-68
2022/01/20 03:21:01;;;;;;;9.60;3.37;;;5.10;99.90;;;;;;5093144;28;20176;-68
2022/01/20 03:23:27;;;;;;;13.03;3.50;;;5.20;99.90;;;;;;5092188;28;20172;-68
2022/01/20 03:25:53;;;;;;;19.20;4.73;;;5.10;99.90;;;;;;5073742;28;21168;-69
2022/01/20 03:28:18;;;;;;;10.83;4.77;;;5.20;99.90;;;;;;5092247;28;20443;-69
2022/01/20 03:30:44;;;;;;;13.60;4.10;;;5.10;99.90;;;;;;5074022;28;20533;-69
2022/01/20 03:33:09;;;;;;;17.17;4.30;;;5.10;99.90;;;;;;5104688;28;20231;-69
2022/01/20 03:35:35;;;;;;;14.00;4.53;;;5.20;99.90;;;;;;5111953;28;20199;-69
2022/01/20 03:38:01;;;;;;;12.17;3.73;;;5.20;99.90;;;;;;5112349;28;20200;-69
2022/01/20 03:40:27;;;;;;;16.47;4.03;;;5.10;99.90;;;;;;5112430;28;20441;-69
2022/01/20 03:42:53;;;;;;;14.00;4.90;;;5.20;99.90;;;;;;5092509;28;20418;-69
2022/01/20 03:45:18;;;;;;;10.60;4.70;;;5.20;99.90;;;;;;5111899;28;20172;-69
2022/01/20 03:47:44;;;;;;;8.37;3.63;;;5.20;99.90;;;;;;5111907;28;20293;-68
2022/01/20 03:50:59;;;;;;;10.57;4.07;;;5.00;99.90;;;;;;5112085;28;20526;-67
2022/01/20 03:52:55;;;;;;;16.13;5.17;;;4.90;99.90;;;;;;5111209;28;20263;-68
2022/01/20 03:55:21;;;;;;;15.77;4.80;;;5.00;99.90;;;;;;5115967;28;20531;-68
2022/01/20 03:57:46;;;;;;;22.83;4.97;;;5.10;99.90;;;;;;5116008;28;20548;-69
2022/01/20 04:00:12;;;;;;;14.13;4.93;;;5.20;99.90;;;;;;5116491;28;20930;-68
2022/01/20 04:02:38;;;;;;;13.10;4.13;;;5.20;99.90;;;;;;5116162;28;20175;-68
2022/01/20 04:05:04;;;;;;;12.03;4.03;;;5.20;99.90;;;;;;5114478;28;20426;-68
2022/01/20 04:07:29;;;;;;;14.67;4.27;;;5.20;99.90;;;;;;5115763;28;20307;-67
2022/01/20 04:09:55;;;;;;;9.23;3.83;;;5.20;99.90;;;;;;5115870;28;20930;-68
2022/01/20 04:12:20;;;;;;;10.77;3.80;;;5.10;99.90;;;;;;5115877;28;20184;-68
2022/01/20 04:14:48;;;;;;;9.47;4.27;;;5.00;99.90;;;;;;5114009;28;20629;-69
2022/01/20 04:17:19;;;;;;;12.30;3.53;;;5.00;99.90;;;;;;5115482;28;20720;-68
2022/01/20 04:19:45;;;;;;;12.80;4.13;;;5.10;99.90;;;;;;5115938;28;20489;-69
2022/01/20 04:22:10;;;;;;;10.90;3.40;;;5.10;99.90;;;;;;5115477;28;20467;-68
2022/01/20 04:24:37;;;;;;;18.43;5.37;;;4.90;99.90;;;;;;5115680;28;20418;-68
2022/01/20 04:27:04;;;;;;;15.60;4.87;;;4.80;99.90;;;;;;5113597;28;20181;-69
2022/01/20 04:29:29;;;;;;;16.60;4.73;;;4.90;99.90;;;;;;5115452;28;20860;-68
2022/01/20 04:31:55;;;;;;;10.57;4.53;;;5.00;99.90;;;;;;5115275;28;20444;-67
2022/01/20 04:34:21;;;;;;;14.73;5.00;;;5.10;99.90;;;;;;5096746;28;20241;-68
2022/01/20 04:36:49;;;;;;;11.47;5.30;;;5.00;99.90;;;;;;5113276;28;20262;-68
2022/01/20 04:39:20;;;;;;;12.03;5.33;;;5.00;99.90;;;;;;5108077;28;20449;-68
2022/01/20 04:41:46;;;;;;;12.83;4.17;;;5.00;99.90;;;;;;5091932;28;20909;-68
2022/01/20 04:44:18;;;;;;;12.50;4.40;;;5.10;99.90;;;;;;5094281;28;20497;-69
2022/01/20 04:46:53;;;;;;;12.70;4.57;;;5.10;99.90;;;;;;5094284;28;20411;-70
2022/01/20 04:57:21;;;;;;;11.80;4.30;;;5.00;99.90;;;;;;5114693;28;20396;-68
2022/01/20 04:59:53;;;;;;;11.60;4.60;;;4.90;99.90;;;;;;5113189;28;20410;-68
2022/01/20 05:02:19;;;;;;;12.33;5.03;;;4.80;99.90;;;;;;5114494;28;20417;-67
2022/01/20 05:04:45;;;;;;;11.00;3.80;;;4.90;99.90;;;;;;5095707;28;20503;-67
2022/01/20 05:07:18;;;;;;;18.03;4.53;;;4.90;99.90;;;;;;5114225;28;20839;-68
2022/01/20 05:09:44;;;;;;;15.00;4.40;;;4.70;99.90;;;;;;5114916;28;20629;-69
2022/01/20 05:12:13;;;;;;;7.80;4.23;;;4.80;99.90;;;;;;5113144;28;20500;-68
2022/01/20 05:14:39;;;;;;;9.47;4.30;;;4.90;99.90;;;;;;5096303;28;20208;-68
2022/01/20 05:17:04;;;;;;;15.90;6.43;;;4.80;99.90;;;;;;5084295;28;20542;-67
2022/01/20 05:19:32;;;;;;;18.20;6.70;;;4.80;99.90;;;;;;5086565;28;20189;-67
2022/01/20 05:21:58;;;;;;;13.87;5.63;;;4.80;99.90;;;;;;5094069;28;20262;-66
2022/01/20 05:24:24;;;;;;;10.20;6.00;;;4.80;99.90;;;;;;5094072;28;20789;-67
2022/01/20 05:26:52;;;;;;;11.50;5.37;;;4.80;99.90;;;;;;5093753;28;20998;-70
2022/01/20 05:29:19;;;;;;;9.57;6.33;;;4.70;99.90;;;;;;5093664;28;20422;-68
2022/01/20 05:31:44;;;;;;;9.27;5.53;;;4.70;99.90;;;;;;5095260;28;20914;-68
2022/01/20 05:34:10;;;;;;;14.00;6.80;;;4.60;99.90;;;;;;5094301;28;20444;-70
2022/01/20 05:36:36;;;;;;;8.43;5.00;;;4.50;99.90;;;;;;5098679;28;20183;-68
2022/01/20 05:39:02;;;;;;;10.90;6.00;;;4.40;99.90;;;;;;5103130;28;20197;-67
2022/01/20 05:41:28;;;;;;;15.73;7.90;;;4.40;99.90;;;;;;5094092;28;20258;-68
2022/01/20 05:43:53;;;;;;;12.57;6.53;;;4.40;99.90;;;;;;5094898;28;20468;-67
2022/01/20 05:46:23;;;;;;;16.50;6.43;;;4.40;99.90;;;;;;5093609;28;20270;-68
2022/01/20 05:48:49;;;;;;;11.83;6.83;;;4.50;99.90;;;;;;5093937;28;20267;-68
2022/01/20 05:51:15;;;;;;;16.90;8.27;;;4.50;99.90;;;;;;5093340;28;20501;-68
2022/01/20 05:53:41;;;;;;;14.03;10.07;;;4.40;99.90;;;;;;5094712;28;20175;-68
2022/01/20 05:56:07;;;;;;;13.40;8.20;;;4.50;99.90;;;;;;5093533;28;20996;-68
2022/01/20 05:58:37;;;;;;;15.73;8.90;;;4.50;99.90;;;;;;5093612;28;20433;-68
2022/01/20 06:01:07;;;;;;;14.03;8.30;;;4.40;99.90;;;;;;5093425;28;20416;-67
2022/01/20 06:03:36;;;;;;;13.43;8.40;;;4.40;99.90;;;;;;5093996;28;20437;-68
2022/01/20 06:06:03;;;;;;;14.40;7.87;;;4.30;99.90;;;;;;5092901;28;20428;-68
2022/01/20 06:08:28;;;;;;;13.30;7.37;;;4.10;99.90;;;;;;5099282;22;20582;-69
2022/01/20 06:10:54;;;;;;;12.10;7.00;;;4.10;99.90;;;;;;5032711;28;20473;-68
2022/01/20 06:13:19;;;;;;;10.50;8.03;;;3.90;99.90;;;;;;5051243;28;20582;-69
2022/01/20 06:15:45;;;;;;;11.60;7.00;;;3.90;99.90;;;;;;5055961;28;20663;-68
2022/01/20 06:18:11;;;;;;;9.60;6.80;;;3.90;99.90;;;;;;5045807;28;20696;-68
2022/01/20 06:20:38;;;;;;;11.13;6.80;;;3.90;99.90;;;;;;5046424;28;20423;-68
2022/01/20 06:23:08;;;;;;;11.80;5.33;;;4.00;99.90;;;;;;5031645;28;20220;-69
2022/01/20 06:25:34;;;;;;;10.80;4.70;;;4.00;99.90;;;;;;5043970;28;20427;-69
2022/01/20 06:28:00;;;;;;;10.17;4.87;;;3.90;99.90;;;;;;5043599;28;20437;-69
2022/01/20 06:30:26;;;;;;;5.20;3.80;;;3.90;99.90;;;;;;5042920;28;20456;-69
2022/01/20 06:32:52;;;;;;;8.33;3.73;;;3.90;99.90;;;;;;5050821;28;20509;-68
2022/01/20 06:35:18;;;;;;;12.40;4.20;;;3.90;99.90;;;;;;5042855;28;20213;-68
2022/01/20 06:37:43;;;;;;;7.63;3.60;;;3.90;99.90;;;;;;5055461;28;20987;-69
2022/01/20 06:40:10;;;;;;;10.70;4.03;;;3.90;99.90;;;;;;5051953;28;20703;-70
2022/01/20 06:42:36;;;;;;;6.67;3.27;;;3.90;99.90;;;;;;5051772;28;20180;-69
2022/01/20 06:45:07;;;;;;;10.13;3.80;;;3.90;99.90;;;;;;5051723;28;20842;-69
2022/01/20 06:47:33;;;;;;;8.20;3.27;;;4.00;99.90;;;;;;5049870;28;20456;-68
2022/01/20 06:50:00;;;;;;;7.90;3.50;;;4.00;99.90;;;;;;5057960;28;20490;-69
2022/01/20 06:52:26;;;;;;;11.10;3.37;;;4.00;99.90;;;;;;5051823;28;20202;-69
2022/01/20 06:54:51;;;;;;;8.03;3.27;;;3.90;99.90;;;;;;5050518;28;20522;-69
2022/01/20 06:57:17;;;;;;;7.87;2.80;;;4.00;99.90;;;;;;5049874;28;20450;-71
2022/01/20 06:59:43;;;;;;;6.80;2.80;;;4.00;99.90;;;;;;5050235;28;20302;-69
2022/01/20 07:02:08;;;;;;;9.50;2.93;;;4.00;99.90;;;;;;5049067;28;20202;-68
2022/01/20 07:04:34;;;;;;;7.00;2.70;;;4.00;99.90;;;;;;5049910;28;20266;-70
2022/01/20 07:07:00;;;;;;;5.53;2.30;;;4.20;99.90;;;;;;5050033;28;20205;-69
2022/01/20 07:09:26;;;;;;;6.40;2.73;;;4.10;99.90;;;;;;5042306;28;20229;-69
2022/01/20 07:11:51;;;;;;;8.70;2.50;;;4.10;99.90;;;;;;5045780;28;20230;-70
2022/01/20 07:14:17;;;;;;;9.03;3.20;;;4.00;99.90;;;;;;5045477;28;20474;-69
2022/01/20 07:16:43;;;;;;;12.57;2.90;;;4.00;99.90;;;;;;5046114;28;20200;-69
2022/01/20 07:19:08;;;;;;;6.70;2.37;;;3.90;99.90;;;;;;5038058;28;20418;-70
2022/01/20 07:21:34;;;;;;;10.87;3.27;;;3.90;99.90;;;;;;5030293;28;20701;-68
2022/01/20 07:24:00;;;;;;;13.17;4.00;;;3.90;99.90;;;;;;5046656;28;21172;-70
2022/01/20 07:26:25;;;;;;;9.53;2.50;;;4.10;99.90;;;;;;5046450;28;20222;-70
2022/01/20 07:28:51;;;;;;;13.87;2.77;;;4.00;99.90;;;;;;5045886;28;20216;-69
2022/01/20 07:31:20;;;;;;;4.90;2.60;;;4.00;99.90;;;;;;5046826;28;20206;-69
2022/01/20 07:33:46;;;;;;;9.47;2.87;;;4.00;99.90;;;;;;5051042;28;20276;-67
2022/01/20 07:36:12;;;;;;;6.27;2.90;;;4.10;99.90;;;;;;5046812;28;20438;-68
2022/01/20 07:38:38;;;;;;;4.17;2.10;;;4.10;99.90;;;;;;5046921;28;20453;-67
2022/01/20 07:41:03;;;;;;;5.10;2.50;;;4.10;99.90;;;;;;5047186;28;20360;-69
2022/01/20 07:43:29;;;;;;;12.73;3.10;;;4.00;99.90;;;;;;5047789;28;20260;-70
2022/01/20 07:45:55;;;;;;;10.83;3.00;;;3.90;99.90;;;;;;5046742;28;20251;-69
2022/01/20 07:48:20;;;;;;;9.40;3.50;;;3.80;99.90;;;;;;5045788;28;20252;-68
2022/01/20 07:50:46;;;;;;;14.50;2.57;;;3.90;99.90;;;;;;5046534;28;20448;-68
2022/01/20 07:53:11;;;;;;;7.43;3.03;;;3.80;99.90;;;;;;5046436;28;20231;-69
2022/01/20 07:55:38;;;;;;;9.37;2.90;;;3.90;99.90;;;;;;5044437;28;20551;-70
2022/01/20 07:58:04;;;;;;;7.10;2.57;;;3.90;99.90;;;;;;5046876;28;20861;-70
2022/01/20 08:00:30;;;;;;;12.57;3.20;;;3.90;99.90;;;;;;5046731;28;20452;-70
2022/01/20 08:02:55;;;;;;;10.60;2.90;;;4.00;99.90;;;;;;5049528;28;20464;-68
2022/01/20 08:05:21;;;;;;;4.30;2.23;;;3.90;99.90;;;;;;5051173;28;20274;-69
2022/01/20 08:07:48;;;;;;;4.70;1.90;;;3.90;99.90;;;;;;5045181;28;20221;-70
2022/01/20 08:10:14;;;;;;;10.27;3.00;;;3.90;99.90;;;;;;5043816;28;20231;-69
2022/01/20 08:12:40;;;;;;;6.90;2.47;;;4.10;99.90;;;;;;5046972;28;20501;-70
2022/01/20 08:15:09;;;;;;;10.53;2.73;;;4.20;99.90;;;;;;5053763;28;20483;-70
2022/01/20 08:17:36;;;;;;;15.33;4.03;;;4.10;99.90;;;;;;5065838;28;21243;-70
2022/01/20 08:20:02;;;;;;;9.27;2.40;;;4.10;99.90;;;;;;5066854;28;20453;-69
2022/01/20 08:22:31;;;;;;;15.87;2.70;;;4.10;99.90;;;;;;5049075;28;20466;-69
2022/01/20 08:24:56;;;;;;;5.37;1.90;;;4.00;99.90;;;;;;5032988;28;21014;-70
2022/01/20 08:27:22;;;;;;;6.10;2.50;;;4.10;99.90;;;;;;5047920;28;20495;-69
2022/01/20 08:29:47;;;;;;;10.20;2.10;;;4.00;99.90;;;;;;5048136;28;20203;-69
2022/01/20 08:32:13;;;;;;;7.00;2.13;;;3.90;99.90;;;;;;5048350;28;20291;-68
2022/01/20 08:34:39;;;;;;;13.93;2.57;;;3.90;99.90;;;;;;5047682;28;20632;-69
2022/01/20 08:37:04;;;;;;;6.30;1.97;;;3.80;99.90;;;;;;5047774;28;20170;-68
2022/01/20 08:42:04;;;;;;;6.00;2.20;;;3.70;99.90;;;;;;5053482;28;20205;-68
2022/01/20 08:44:30;;;;;;;10.23;1.93;;;3.80;99.90;;;;;;5053455;28;20416;-68
2022/01/20 08:46:57;;;;;;;8.67;2.80;;;3.80;99.90;;;;;;5053233;28;20391;-68
2022/01/20 08:49:23;;;;;;;11.50;2.30;;;3.80;99.90;;;;;;5053380;28;20207;-69
2022/01/20 08:51:50;;;;;;;10.27;2.33;;;3.80;99.90;;;;;;5053181;28;20413;-70
2022/01/20 08:54:16;;;;;;;5.20;1.83;;;3.90;99.90;;;;;;5053193;28;20196;-69
2022/01/20 08:56:42;;;;;;;8.27;3.20;;;4.00;99.90;;;;;;5052746;28;20421;-68
2022/01/20 08:59:08;;;;;;;7.20;2.20;;;4.10;99.90;;;;;;5053083;28;20746;-69
2022/01/20 09:01:35;;;;;;;8.77;2.90;;;4.20;99.90;;;;;;5053229;28;20911;-67
2022/01/20 09:04:01;;;;;;;6.70;2.37;;;4.20;99.90;;;;;;5053044;28;20417;-68
2022/01/20 09:06:26;;;;;;;8.10;2.40;;;4.20;99.90;;;;;;5053216;28;20830;-68
2022/01/20 09:08:52;;;;;;;8.33;2.63;;;4.20;99.90;;;;;;5052824;28;20547;-68
2022/01/20 09:11:24;;;;;;;4.10;1.70;;;4.10;99.90;;;;;;5053171;28;20246;-68
2022/01/20 09:16:35;;;;;;;12.23;2.70;;;4.20;99.90;;;;;;5032656;28;20402;-69
2022/01/20 09:19:01;;;;;;;10.07;2.90;;;4.20;99.90;;;;;;5032571;28;20429;-68
2022/01/20 09:21:28;;;;;;;6.03;2.63;;;4.30;99.90;;;;;;5034618;28;20611;-68
2022/01/20 09:23:55;;;;;;;13.17;3.90;;;4.30;99.90;;;;;;5034644;28;20448;-68
2022/01/20 09:26:21;;;;;;;10.63;2.70;;;4.40;99.90;;;;;;5032673;28;20645;-68
2022/01/20 09:28:47;;;;;;;17.33;3.13;;;4.30;99.90;;;;;;5032650;28;20887;-67
2022/01/20 09:31:13;;;;;;;9.70;3.10;;;4.30;99.90;;;;;;5032774;28;20871;-67
2022/01/20 09:33:39;;;;;;;9.53;2.80;;;4.40;99.90;;;;;;5032617;28;20559;-70
2022/01/20 09:36:10;;;;;;;6.77;2.70;;;4.50;99.90;;;;;;5032188;28;20420;-68
2022/01/20 09:38:36;;;;;;;14.90;3.40;;;4.60;99.90;;;;;;5032628;28;20473;-69
2022/01/20 09:41:03;;;;;;;8.13;3.47;;;4.70;99.90;;;;;;5032432;28;20471;-69
2022/01/20 09:43:30;;;;;;;12.50;4.27;;;4.50;99.90;;;;;;5032628;28;20421;-69
2022/01/20 09:45:56;;;;;;;5.50;3.30;;;4.30;99.90;;;;;;5031993;28;20427;-67
2022/01/20 09:48:22;;;;;;;10.37;3.63;;;4.20;99.90;;;;;;5032317;28;20536;-67
2022/01/20 09:50:49;;;;;;;9.63;3.70;;;4.20;99.90;;;;;;5032246;28;20757;-70
2022/01/20 09:53:15;;;;;;;10.13;2.87;;;4.20;99.90;;;;;;5032582;28;20495;-69
2022/01/20 09:55:41;;;;;;;10.73;3.13;;;4.20;99.90;;;;;;5031739;28;20479;-67
2022/01/20 09:58:09;;;;;;;10.57;3.17;;;4.10;99.90;;;;;;5032133;28;20407;-67
2022/01/20 10:00:37;;;;;;;4.80;2.17;;;4.00;99.90;;;;;;5031975;28;20414;-68
2022/01/20 10:03:10;;;;;;;6.73;2.20;;;4.10;99.90;;;;;;5032264;28;20422;-67
2022/01/20 10:05:50;;;;;;;7.90;2.60;;;4.10;99.90;;;;;;5032374;28;20469;-69
2022/01/20 10:08:21;;;;;;;10.23;3.40;;;4.10;99.90;;;;;;5031421;28;20457;-68
2022/01/20 10:11:09;;;;;;;5.30;2.40;;;4.10;99.90;;;;;;5014877;28;20498;-68
2022/01/20 10:13:38;;;;;;;8.37;2.27;;;4.20;99.90;;;;;;5030556;28;20423;-68
2022/01/20 10:16:13;;;;;;;6.67;3.23;;;4.30;99.90;;;;;;5048792;28;20454;-68
2022/01/20 10:18:57;;;;;;;4.73;2.00;;;4.50;99.90;;;;;;5051636;28;20521;-69
2022/01/20 10:21:35;;;;;;;6.53;2.63;;;4.50;99.90;;;;;;5051672;28;20904;-67
2022/01/20 10:24:06;;;;;;;6.93;2.33;;;4.50;99.90;;;;;;5051529;28;20488;-67
2022/01/20 10:26:32;;;;;;;4.63;1.67;;;4.50;99.90;;;;;;5051202;28;20512;-67
2022/01/20 10:29:00;;;;;;;5.50;1.97;;;4.50;99.90;;;;;;5051176;28;20519;-68
2022/01/20 10:31:41;;;;;;;12.63;2.87;;;4.20;99.90;;;;;;5051143;28;20234;-69
2022/01/20 10:34:18;;;;;;;9.37;2.00;;;4.40;99.90;;;;;;5051135;28;20571;-68
2022/01/20 10:36:53;;;;;;;16.30;2.53;;;4.30;99.90;;;;;;5051327;28;20405;-68
2022/01/20 10:39:27;;;;;;;9.43;2.57;;;4.20;99.90;;;;;;5051516;28;20922;-68
2022/01/20 10:42:00;;;;;;;5.97;2.13;;;4.10;99.90;;;;;;5051443;28;20401;-68
2022/01/20 10:44:25;;;;;;;8.00;2.10;;;4.00;99.90;;;;;;5050965;28;20450;-67
2022/01/20 10:46:55;;;;;;;6.60;2.07;;;4.20;99.90;;;;;;5051054;28;20494;-68
2022/01/20 10:49:26;;;;;;;7.47;2.67;;;4.20;99.90;;;;;;5051260;28;20669;-69
2022/01/20 10:52:01;;;;;;;5.83;2.23;;;4.30;99.90;;;;;;5051089;28;20398;-68
2022/01/20 10:54:35;;;;;;;9.70;1.90;;;4.30;99.90;;;;;;5050780;28;20814;-68
2022/01/20 10:57:01;;;;;;;5.80;2.40;;;4.20;99.90;;;;;;5050914;28;20406;-68
2022/01/20 10:59:26;;;;;;;9.90;2.87;;;4.10;99.90;;;;;;5050624;28;20431;-69
2022/01/20 11:02:03;;;;;;;6.93;2.23;;;4.20;99.90;;;;;;5050727;28;20405;-69
2022/01/20 11:04:29;;;;;;;3.23;2.30;;;4.10;99.90;;;;;;5050815;28;20644;-68
2022/01/20 11:06:58;;;;;;;5.83;2.57;;;4.20;99.90;;;;;;5050597;28;20410;-68
2022/01/20 11:09:25;;;;;;;8.67;2.67;;;4.20;99.90;;;;;;5050265;28;20451;-70
2022/01/20 11:11:52;;;;;;;13.07;2.93;;;4.20;99.90;;;;;;5050744;28;20409;-69
2022/01/20 11:14:18;;;;;;;9.77;3.07;;;4.20;99.90;;;;;;5050487;28;20447;-69
2022/01/20 11:16:44;;;;;;;8.40;3.43;;;4.30;99.90;;;;;;5050377;28;20477;-69
2022/01/20 11:19:16;;;;;;;7.17;3.00;;;4.40;99.90;;;;;;5032790;28;20496;-70
2022/01/20 11:21:44;;;;;;;12.73;3.07;;;4.60;99.90;;;;;;5050490;28;20472;-70
2022/01/20 11:24:24;;;;;;;8.40;2.83;;;4.50;99.90;;;;;;5050422;28;21102;-70
2022/01/20 11:26:57;;;;;;;7.83;3.00;;;4.60;99.90;;;;;;5050373;28;20406;-70
2022/01/20 11:29:36;;;;;;;7.07;3.20;;;4.70;99.90;;;;;;5050503;28;20431;-70
2022/01/20 11:32:02;;;;;;;8.40;2.90;;;4.60;99.90;;;;;;5050616;28;20405;-70
2022/01/20 11:34:28;;;;;;;13.90;4.23;;;4.50;99.90;;;;;;5049761;28;20984;-70
2022/01/20 11:36:53;;;;;;;11.37;3.50;;;4.70;99.90;;;;;;5032794;28;20412;-68
2022/01/20 11:39:24;;;;;;;12.27;3.80;;;4.60;99.90;;;;;;5052893;28;20228;-68
2022/01/20 11:41:50;;;;;;;10.67;2.47;;;4.50;99.90;;;;;;5050697;28;20585;-70
2022/01/20 11:44:24;;;;;;;14.00;2.80;;;4.40;99.90;;;;;;5049994;28;20441;-70
2022/01/20 11:46:51;;;;;;;12.67;2.87;;;4.40;99.90;;;;;;5049940;28;20797;-70
2022/01/20 11:49:21;;;;;;;7.53;3.17;;;4.40;99.90;;;;;;5032233;28;20458;-70
2022/01/20 11:51:47;;;;;;;9.30;3.07;;;4.30;99.90;;;;;;5050605;28;20484;-70
2022/01/20 11:54:27;;;;;;;9.70;3.10;;;4.30;99.90;;;;;;5050268;28;20558;-69
2022/01/20 11:57:27;;;;;;;7.00;2.97;;;4.30;99.90;;;;;;5049945;28;20670;-69
2022/01/20 11:59:57;;;;;;;7.17;3.23;;;4.40;99.90;;;;;;5052154;28;20854;-69
2022/01/20 12:02:37;;;;;;;9.27;3.07;;;4.60;99.90;;;;;;5050230;28;20413;-68
2022/01/20 12:05:25;;;;;;;6.43;3.00;;;4.70;99.90;;;;;;5050183;28;20407;-68
2022/01/20 12:07:51;;;;;;;6.23;2.30;;;4.70;99.90;;;;;;5049836;28;20896;-68
2022/01/20 12:10:22;;;;;;;7.50;2.83;;;4.70;99.90;;;;;;5050090;28;20420;-69
2022/01/20 12:12:48;;;;;;;10.03;3.73;;;4.70;99.90;;;;;;5050074;28;20169;-68
2022/01/20 12:15:21;;;;;;;11.17;3.10;;;4.80;99.90;;;;;;5052937;28;20453;-68
2022/01/20 12:17:55;;;;;;;10.50;3.27;;;4.70;99.90;;;;;;5035697;28;20191;-71
2022/01/20 12:20:25;;;;;;;13.10;3.80;;;4.80;99.90;;;;;;5053961;28;20911;-68
2022/01/20 12:22:52;;;;;;;8.13;2.80;;;5.00;99.90;;;;;;5053752;28;20487;-68
2022/01/20 12:25:27;;;;;;;4.70;2.60;;;5.00;99.90;;;;;;5053875;28;20410;-68
2022/01/20 12:28:27;;;;;;;4.97;3.10;;;5.00;99.90;;;;;;5053781;28;20452;-68
2022/01/20 12:31:00;;;;;;;12.73;4.03;;;5.00;99.90;;;;;;5050034;28;20980;-70
2022/01/20 12:33:28;;;;;;;7.37;2.90;;;5.00;99.90;;;;;;5053785;28;20438;-70
2022/01/20 12:35:56;;;;;;;4.83;2.70;;;5.00;99.90;;;;;;5053557;28;20827;-69
2022/01/20 12:38:29;;;;;;;8.57;3.13;;;4.80;99.90;;;;;;5053316;28;20990;-70
2022/01/20 12:41:15;;;;;;;7.10;3.17;;;4.90;99.90;;;;;;5054630;28;20753;-70
2022/01/20 12:43:47;;;;;;;7.07;3.17;;;5.00;99.90;;;;;;5053770;28;20438;-69
2022/01/20 12:46:18;;;;;;;7.37;2.60;;;5.10;99.90;;;;;;5053183;28;20408;-70
2022/01/20 12:49:09;;;;;;;7.13;3.47;;;4.90;99.90;;;;;;5053366;28;20442;-69
2022/01/20 12:51:36;;;;;;;9.57;3.43;;;4.80;99.90;;;;;;5033339;28;20755;-69
2022/01/20 12:54:16;;;;;;;10.20;3.37;;;4.80;99.90;;;;;;5032895;28;20430;-71
2022/01/20 12:56:45;;;;;;;7.73;2.47;;;4.90;99.90;;;;;;5032176;28;20436;-70
2022/01/20 12:59:16;;;;;;;6.93;2.70;;;4.80;99.90;;;;;;5032177;28;20433;-71
2022/01/20 13:01:44;;;;;;;11.97;3.10;;;4.50;99.90;;;;;;5048977;28;20461;-69
2022/01/20 13:04:15;;;;;;;7.20;3.17;;;4.40;99.90;;;;;;5052055;28;20505;-69
2022/01/20 13:06:50;;;;;;;8.30;3.47;;;4.40;99.90;;;;;;5052488;28;20434;-69
2022/01/20 13:09:18;;;;;;;6.53;4.00;;;4.40;99.90;;;;;;5052138;28;20521;-69
2022/01/20 13:11:59;;;;;;;12.70;4.70;;;4.40;99.90;;;;;;5052871;28;20830;-69
2022/01/20 13:14:40;;;;;;;7.10;4.93;;;4.50;99.90;;;;;;5051164;28;20474;-69
2022/01/20 13:17:07;;;;;;;11.43;4.67;;;4.70;99.90;;;;;;5051838;28;20524;-69
2022/01/20 13:19:37;;;;;;;9.50;4.97;;;4.50;99.90;;;;;;5051892;28;20542;-69
2022/01/20 13:22:06;;;;;;;8.87;4.07;;;4.50;99.90;;;;;;5050558;28;20949;-68
2022/01/20 13:24:34;;;;;;;7.13;3.80;;;4.60;99.90;;;;;;5048762;28;20817;-69
2022/01/20 13:27:01;;;;;;;11.73;4.13;;;4.60;99.90;;;;;;5031743;28;20557;-68
2022/01/20 13:29:39;;;;;;;6.37;4.60;;;4.70;99.90;;;;;;5049589;28;20458;-70
2022/01/20 13:32:05;;;;;;;9.57;4.13;;;4.80;99.90;;;;;;5069890;28;20818;-68
2022/01/20 13:34:30;;;;;;;5.57;3.70;;;4.70;99.90;;;;;;5070067;28;20539;-70
2022/01/20 13:36:56;;;;;;;9.00;3.80;;;4.50;99.90;;;;;;5052843;28;20195;-70
2022/01/20 13:39:37;;;;;;;4.23;2.40;;;4.60;99.90;;;;;;5070557;28;20211;-70
2022/01/20 13:45:16;;;;;;;7.50;2.60;;;4.30;99.90;;;;;;5020524;28;20447;-70
2022/01/20 13:47:54;;;;;;;4.57;2.00;;;4.30;99.90;;;;;;5051896;28;20522;-70
2022/01/20 13:50:31;;;;;;;3.83;2.07;;;4.20;99.90;;;;;;5052804;28;20499;-71
2022/01/20 13:52:58;;;;;;;5.83;2.37;;;4.10;99.90;;;;;;5052953;28;20406;-71
2022/01/20 13:55:30;;;;;;;4.27;2.20;;;4.00;99.90;;;;;;5052251;28;20499;-71
2022/01/20 13:57:58;;;;;;;5.90;2.20;;;4.10;99.90;;;;;;5052016;28;20382;-71
2022/01/20 14:00:32;;;;;;;5.43;1.27;;;4.10;99.90;;;;;;5052365;28;20410;-68
2022/01/20 14:02:58;;;;;;;4.30;1.90;;;4.00;99.90;;;;;;5052174;28;20479;-68
2022/01/20 14:05:33;;;;;;;3.97;2.10;;;4.10;99.90;;;;;;5052315;28;20419;-68
2022/01/20 14:08:00;;;;;;;5.17;2.37;;;4.30;99.90;;;;;;5051877;28;20444;-69